METAR Data
IDs: Format: Raw Decoded Include TAF

Data at: 0122 UTC 24 Sep 2018

KPRS 240115Z AUTO 23004KT 10SM CLR 27/12 A2997 RMK AO2 T02680123
KPRS 240055Z AUTO 22005KT 10SM CLR 28/11 A2997 RMK AO2 T02770110
KPRS 240035Z AUTO 00000KT 10SM CLR 29/10 A2997 RMK AO2 T02870098
KPRS 240015Z AUTO 18004KT 10SM CLR 29/10 A2997 RMK AO2 T02900104
KPRS 232355Z AUTO 00000KT 10SM CLR 29/10 A2997 RMK AO2 LTG DSNT SW T02920100 10298 20248
KPRS 232335Z AUTO 22003KT 10SM CLR 29/11 A2997 RMK AO2 T02930105
KPRS 232315Z AUTO 22003KT 10SM CLR 29/11 A2998 RMK AO2 T02930111
KPRS 232255Z AUTO 22003KT 10SM CLR 29/12 A2998 RMK AO2 T02920115
KPRS 232235Z AUTO 00000KT 10SM CLR 30/12 A2998 RMK AO2 T02980119
KPRS 232215Z AUTO 17005KT 10SM CLR 29/12 A2999 RMK AO2 T02920119
KPRS 232155Z AUTO 00000KT 10SM CLR 29/12 A2999 RMK AO2 T02860116
KPRS 232135Z AUTO 28003KT 10SM CLR 29/12 A3000 RMK AO2 T02870118
KPRS 232115Z AUTO 28007KT 10SM CLR 29/12 A3001 RMK AO2 T02890123
KPRS 232055Z AUTO 00000KT 10SM CLR 28/12 A3002 RMK AO2 T02800123
KPRS 232035Z AUTO 23005KT 10SM CLR 28/12 A3003 RMK AO2 T02790121
KPRS 232015Z AUTO 20009KT 150V210 10SM CLR 28/12 A3004 RMK AO2 T02790124
KPRS 231955Z AUTO 00000KT 10SM CLR 27/12 A3005 RMK AO2 T02700124
KPRS 231935Z AUTO 25004KT 10SM CLR 27/13 A3006 RMK AO2 T02690126
KPRS 231915Z AUTO 00000KT 10SM CLR 26/13 A3007 RMK AO2 T02640125
KPRS 231855Z AUTO 09003KT 10SM CLR 26/13 A3009 RMK AO2 T02630130
KPRS 231835Z AUTO 18007KT 10SM CLR 26/13 A3010 RMK AO2 T02590133
KPRS 231815Z AUTO 25004KT 10SM CLR 26/13 A3011 RMK AO2 T02560133
KPRS 231755Z AUTO 23006KT 10SM CLR 25/13 A3012 RMK AO2 T02490132 10249 20151
KPRS 231735Z AUTO 23005KT 10SM CLR 25/14 A3013 RMK AO2 T02450138
KPRS 231715Z AUTO 21006KT 10SM CLR 24/14 A3013 RMK AO2 T02360139
KPRS 231655Z AUTO 15004KT 10SM CLR 23/14 A3014 RMK AO2 T02300139
KPRS 231635Z AUTO 30003KT 10SM CLR 22/14 A3015 RMK AO2 T02230140
KPRS 231615Z AUTO 16005KT 10SM CLR 22/14 A3015 RMK AO2 T02240142
KPRS 231555Z AUTO 24004KT 10SM CLR 21/14 A3015 RMK AO2 T02120141
KPRS 231535Z AUTO 00000KT 10SM CLR 21/14 A3015 RMK AO2 T02110142
KPRS 231515Z AUTO 25003KT 10SM CLR 20/14 A3014 RMK AO2 T02040139
KPRS 231455Z AUTO 27005KT 10SM CLR 20/14 A3014 RMK AO2 T01990136
KPRS 231435Z AUTO 29006KT 10SM CLR 19/13 A3014 RMK AO2 T01940132
KPRS 231415Z AUTO 35004KT 10SM CLR 19/13 A3013 RMK AO2 T01850127
KPRS 231355Z AUTO 35004KT 10SM CLR 18/13 A3013 RMK AO2 T01780130
KPRS 231335Z AUTO 30005KT 10SM CLR 17/13 A3013 RMK AO2 T01660131
KPRS 231315Z AUTO 33005KT 10SM CLR 16/13 A3012 RMK AO2 T01570130
KPRS 231255Z AUTO 00000KT 10SM CLR 15/13 A3011 RMK AO2 T01540130
KPRS 231235Z AUTO 30005KT 10SM CLR 16/13 A3011 RMK AO2 T01570130
KPRS 231215Z AUTO 00000KT 10SM CLR 16/13 A3011 RMK AO2 T01590130
KPRS 231155Z AUTO 34005KT 10SM CLR 16/13 A3010 RMK AO2 T01620131 10203 20158
KPRS 231135Z AUTO 36005KT 10SM CLR 16/13 A3010 RMK AO2 T01620131
KPRS 231115Z AUTO 30005KT 10SM CLR 16/14 A3010 RMK AO2 T01600135
KPRS 231055Z AUTO 33005KT 10SM CLR 16/14 A3010 RMK AO2 T01580136
KPRS 231035Z AUTO 01005KT 10SM CLR 16/14 A3010 RMK AO2 T01630137
KPRS 231015Z AUTO 03003KT 10SM CLR 17/14 A3010 RMK AO2 T01650139
KPRS 230955Z AUTO 13003KT 10SM CLR 16/14 A3011 RMK AO2 T01640140
KPRS 230935Z AUTO 36005KT 10SM CLR 17/14 A3011 RMK AO2 T01700139
KPRS 230915Z AUTO 01004KT 10SM CLR 17/14 A3011 RMK AO2 T01720140
KPRS 230855Z AUTO 31005KT 10SM CLR 18/14 A3012 RMK AO2 T01760139
KPRS 230835Z AUTO 31004KT 10SM CLR 17/14 A3012 RMK AO2 T01710144
KPRS 230815Z AUTO 00000KT 10SM CLR 18/14 A3012 RMK AO2 T01800142
KPRS 230755Z AUTO 10003KT 10SM CLR 19/14 A3013 RMK AO2 T01860141
KPRS 230735Z AUTO 19006KT 10SM SCT050 19/14 A3013 RMK AO2 T01880138
KPRS 230715Z AUTO 00000KT 10SM SCT050 19/14 A3014 RMK AO2 T01860138
KPRS 230655Z AUTO 14004KT 10SM CLR 20/13 A3014 RMK AO2 T01970131
KPRS 230635Z AUTO 06005KT 10SM CLR 20/13 A3014 RMK AO2 T02010129
KPRS 230615Z AUTO 06005KT 10SM CLR 20/13 A3015 RMK AO2 T02020132
KPRS 230555Z AUTO 08004KT 10SM CLR 20/13 A3015 RMK AO2 T02000134 10255 20195 402660190
KPRS 230535Z AUTO 08004KT 10SM CLR 20/14 A3014 RMK AO2 T01990136
KPRS 230515Z AUTO 02006KT 10SM CLR 21/14 A3014 RMK AO2 T02050135
KPRS 230455Z AUTO 02006KT 10SM CLR 21/14 A3014 RMK AO2 T02060135
KPRS 230435Z AUTO 01006KT 10SM CLR 21/14 A3014 RMK AO2 T02050140
KPRS 230415Z AUTO 03005KT 10SM CLR 21/15 A3014 RMK AO2 T02080145
KPRS 230355Z AUTO 03004KT 10SM CLR 21/15 A3014 RMK AO2 T02100150
KPRS 230335Z AUTO 04003KT 10SM CLR 22/15 A3014 RMK AO2 T02160149
KPRS 230315Z AUTO 03006KT 10SM CLR 22/15 A3013 RMK AO2 T02220146
KPRS 230255Z AUTO 04006KT 10SM SCT060 23/14 A3012 RMK AO2 T02290142
KPRS 230235Z AUTO 03005KT 10SM BKN060 24/15 A3011 RMK AO2 T02350145
KPRS 230215Z AUTO 35003KT 10SM OVC060 24/16 A3011 RMK AO2 T02380164
KPRS 230155Z AUTO 00000KT 10SM OVC060 25/15 A3010 RMK AO2 T02450153
KPRS 230135Z AUTO 00000KT 10SM OVC060 25/15 A3010 RMK AO2 T02480145
KPRS 230115Z AUTO 00000KT 10SM BKN050 BKN065 25/15 A3010 RMK AO2 T02470145
KPRS 230055Z AUTO 00000KT 10SM SCT050 BKN065 25/14 A3010 RMK AO2 T02490143
KPRS 230035Z AUTO 00000KT 10SM BKN050 OVC065 25/14 A3009 RMK AO2 T02540139
KPRS 230015Z AUTO 06005KT 10SM SCT050 OVC065 25/14 A3010 RMK AO2 T02540142
KPRS 222355Z AUTO 06004KT 10SM BKN065 25/14 A3009 RMK AO2 T02540141 10266 20232
KPRS 222335Z AUTO 00000KT 10SM OVC060 26/15 A3009 RMK AO2 T02560145
KPRS 222315Z AUTO 05004KT 10SM OVC060 26/14 A3009 RMK AO2 T02600141
KPRS 222255Z AUTO 00000KT 10SM BKN050 BKN065 26/14 A3009 RMK AO2 T02570139
KPRS 222235Z AUTO 00000KT 10SM SCT050 BKN065 26/14 A3010 RMK AO2 T02570139
KPRS 222215Z AUTO 00000KT 10SM BKN050 OVC065 26/14 A3010 RMK AO2 T02560137
KPRS 222155Z AUTO 27006KT 10SM OVC050 26/14 A3011 RMK AO2 LTG DSNT SW T02600140
KPRS 222135Z AUTO 23006KT 10SM BKN050 OVC060 26/14 A3011 RMK AO2 T02570136
KPRS 222115Z AUTO 25004G14KT 10SM BKN050 BKN060 26/14 A3012 RMK AO2 T02570137
KPRS 222055Z AUTO 27008KT 10SM BKN050 OVC060 26/14 A3013 RMK AO2 T02580139
KPRS 222035Z AUTO 00000KT 10SM BKN060 26/14 A3014 RMK AO2 T02550138
KPRS 222015Z AUTO 22004KT 10SM BKN060 25/14 A3015 RMK AO2 T02470139
KPRS 221955Z AUTO 27007KT 10SM BKN043 OVC050 25/14 A3016 RMK AO2 T02490142
KPRS 221935Z AUTO 00000KT 10SM BKN043 BKN055 25/14 A3016 RMK AO2 T02490142
KPRS 221915Z AUTO 00000KT 10SM BKN055 24/14 A3017 RMK AO2 T02400144
KPRS 221855Z AUTO 23007KT 10SM SCT045 OVC049 24/15 A3018 RMK AO2 T02390147
KPRS 221835Z AUTO 22005KT 10SM OVC049 24/15 A3019 RMK AO2 T02370147
KPRS 221815Z AUTO 23006KT 10SM OVC047 24/15 A3020 RMK AO2 T02410151
KPRS 221755Z AUTO 25005KT 10SM SCT036 OVC044 23/15 A3021 RMK AO2 T02310150 10236 20190
KPRS 221735Z AUTO 24005KT 10SM BKN035 OVC040 23/15 A3022 RMK AO2 T02280149
KPRS 221715Z AUTO 26007G16KT 10SM OVC038 23/15 A3022 RMK AO2 T02300146
KPRS 221655Z AUTO 01007KT 350V050 10SM OVC038 24/14 A3022 RMK AO2 T02360140
KPRS 221635Z AUTO 36006KT 10SM BKN037 OVC045 23/14 A3022 RMK AO2 T02330140
KPRS 221615Z AUTO 35008KT 10SM OVC041 23/14 A3022 RMK AO2 T02280144
KPRS 221555Z AUTO 01007KT 10SM BKN043 OVC049 23/14 A3022 RMK AO2 T02290143
KPRS 221535Z AUTO 01006KT 10SM OVC046 22/14 A3022 RMK AO2 LTG DSNT SE T02240142
KPRS 221515Z AUTO 02006KT 10SM OVC046 22/14 A3022 RMK AO2 T02240141
KPRS 221455Z AUTO 02006KT 10SM OVC046 22/14 A3021 RMK AO2 T02160138
KPRS 221435Z AUTO 01007KT 10SM OVC046 21/14 A3022 RMK AO2 T02140141
KPRS 221415Z AUTO 02007KT 10SM OVC046 21/14 A3021 RMK AO2 T02080143
KPRS 221355Z AUTO 01007KT 10SM OVC046 21/15 A3021 RMK AO2 T02070149
KPRS 221335Z AUTO 03006KT 10SM OVC048 20/15 A3020 RMK AO2 T01990152